createdAt,value
2023-01-18T00:00:44.627Z,42.72
2023-01-18T00:01:40.082Z,42.35
2023-01-18T00:02:32.706Z,42.54
2023-01-18T00:03:27.861Z,42.44
2023-01-18T00:04:20.450Z,42.48
2023-01-18T00:05:15.926Z,42.62
2023-01-18T00:06:10.484Z,42.60
2023-01-18T00:07:05.642Z,43.25
2023-01-18T00:07:58.205Z,43.73
2023-01-18T00:08:56.354Z,43.81
2023-01-18T00:09:48.931Z,43.71
2023-01-18T00:10:44.159Z,43.20
2023-01-18T00:11:36.715Z,43.52
2023-01-18T00:12:31.875Z,42.59
2023-01-18T00:13:27.012Z,42.81
2023-01-18T00:14:22.305Z,42.25
2023-01-18T00:15:15.384Z,41.83
2023-01-18T00:16:13.324Z,41.66
2023-01-18T00:17:05.931Z,41.22
2023-01-18T00:18:01.256Z,41.37
2023-01-18T00:18:55.148Z,40.88
2023-01-18T00:19:50.326Z,40.93
2023-01-18T00:20:42.914Z,40.42
2023-01-18T00:21:38.065Z,40.53
2023-01-18T00:22:30.634Z,39.77
2023-01-18T00:23:25.782Z,39.96
2023-01-18T00:24:18.325Z,39.63
2023-01-18T00:25:14.046Z,39.73
2023-01-18T00:26:08.434Z,39.79
2023-01-18T00:27:03.606Z,39.77
2023-01-18T00:27:56.844Z,39.65
2023-01-18T00:28:54.621Z,39.61
2023-01-18T00:29:47.170Z,39.60
2023-01-18T00:30:42.862Z,39.13
2023-01-18T00:31:35.442Z,39.48
2023-01-18T00:32:30.610Z,39.35
2023-01-18T00:33:23.231Z,39.48
2023-01-18T00:34:18.365Z,38.75
2023-01-18T00:35:12.164Z,39.37
2023-01-18T00:36:08.204Z,39.26
2023-01-18T00:37:00.783Z,38.96
2023-01-18T00:37:56.681Z,38.95
2023-01-18T00:38:51.781Z,38.80
2023-01-18T00:39:47.017Z,38.96
2023-01-18T00:40:39.592Z,38.71
2023-01-18T00:41:34.773Z,38.81
2023-01-18T00:42:42.317Z,38.85
2023-01-18T00:43:41.142Z,38.88
2023-01-18T00:44:36.379Z,38.34
2023-01-18T00:45:29.208Z,38.41
2023-01-18T00:46:25.760Z,38.47
2023-01-18T00:47:18.307Z,38.76
2023-01-18T00:48:13.477Z,39.10
2023-01-18T00:49:06.240Z,38.99
2023-01-18T00:50:01.427Z,39.55
2023-01-18T00:50:54.107Z,39.75
2023-01-18T00:51:49.348Z,39.71
2023-01-18T00:52:46.691Z,39.86
2023-01-18T00:53:44.368Z,40.41
2023-01-18T00:54:36.918Z,40.47
2023-01-18T00:55:32.152Z,40.42
2023-01-18T00:56:24.753Z,40.76
2023-01-18T00:57:19.969Z,40.90
2023-01-18T00:58:12.542Z,40.96
2023-01-18T00:59:07.712Z,40.89
2023-01-18T01:00:02.987Z,40.93
2023-01-18T01:00:58.241Z,41.13
2023-01-18T01:01:50.957Z,41.36
2023-01-18T01:02:46.315Z,41.51
2023-01-18T01:03:54.479Z,41.58
2023-01-18T01:05:02.083Z,41.43
2023-01-18T01:06:09.657Z,41.93
2023-01-18T01:07:04.804Z,41.49
2023-01-18T01:07:57.358Z,41.83
2023-01-18T01:08:52.490Z,41.88
2023-01-18T01:09:46.296Z,41.58
2023-01-18T01:10:41.477Z,41.56
2023-01-18T01:11:34.064Z,41.75
2023-01-18T01:12:41.729Z,41.70
2023-01-18T01:13:49.518Z,41.79
2023-01-18T01:14:58.873Z,41.93
2023-01-18T01:16:09.078Z,41.83
2023-01-18T01:17:16.623Z,41.99
2023-01-18T01:18:24.351Z,41.90
2023-01-18T01:19:31.946Z,41.72
2023-01-18T01:20:40.368Z,41.92
2023-01-18T01:21:47.999Z,41.75
2023-01-18T01:22:55.985Z,42.00
2023-01-18T01:24:03.759Z,42.24
2023-01-18T01:25:11.534Z,42.21
2023-01-18T01:26:09.144Z,42.08
2023-01-18T01:27:01.743Z,41.91
2023-01-18T01:27:57.205Z,41.92
2023-01-18T01:28:51.703Z,42.02
2023-01-18T01:29:46.883Z,42.43
2023-01-18T01:30:39.451Z,42.32
2023-01-18T01:31:38.852Z,42.30
2023-01-18T01:32:31.427Z,42.24
2023-01-18T01:33:26.640Z,42.02
2023-01-18T01:34:19.299Z,42.24
2023-01-18T01:35:14.542Z,42.18
2023-01-18T01:36:09.187Z,42.43
2023-01-18T01:37:04.531Z,42.12
2023-01-18T01:37:57.070Z,42.41
2023-01-18T01:38:52.263Z,42.29
2023-01-18T01:39:44.830Z,41.99
2023-01-18T01:40:39.978Z,42.14
2023-01-18T01:41:35.932Z,42.12
2023-01-18T01:42:31.085Z,42.48
2023-01-18T01:43:37.886Z,42.14
2023-01-18T01:44:52.276Z,42.46
2023-01-18T01:45:45.002Z,42.07
2023-01-18T01:46:46.530Z,42.16
2023-01-18T01:47:40.715Z,42.30
2023-01-18T01:48:36.335Z,42.48
2023-01-18T01:49:32.937Z,42.70
2023-01-18T01:50:31.637Z,42.52
2023-01-18T01:51:24.319Z,42.46
2023-01-18T01:52:22.696Z,42.29
2023-01-18T01:53:15.318Z,42.47
2023-01-18T01:54:13.695Z,42.51
2023-01-18T01:55:11.177Z,42.43
2023-01-18T01:56:07.730Z,42.26
2023-01-18T01:57:06.243Z,42.33
2023-01-18T01:58:03.811Z,42.45
2023-01-18T01:58:57.641Z,42.70
2023-01-18T01:59:52.982Z,42.29
2023-01-18T02:00:48.763Z,42.64
2023-01-18T02:01:44.537Z,42.20
2023-01-18T02:02:40.600Z,42.39
2023-01-18T02:03:33.291Z,42.26
2023-01-18T02:04:28.464Z,42.26
2023-01-18T02:05:21.244Z,42.49
2023-01-18T02:06:31.690Z,42.65
2023-01-18T02:07:26.475Z,42.16
2023-01-18T02:08:25.027Z,42.31
2023-01-18T02:09:19.097Z,42.38
2023-01-18T02:10:14.853Z,42.36
2023-01-18T02:11:07.425Z,42.47
2023-01-18T02:12:03.165Z,42.37
2023-01-18T02:12:57.114Z,42.67
2023-01-18T02:13:52.538Z,42.21
2023-01-18T02:14:45.193Z,42.54
2023-01-18T02:15:45.584Z,42.71
2023-01-18T02:16:49.409Z,42.50
2023-01-18T02:18:09.619Z,42.19
2023-01-18T02:19:18.261Z,42.44
2023-01-18T02:20:32.653Z,42.57
2023-01-18T02:21:28.690Z,42.46
2023-01-18T02:22:35.911Z,42.62
2023-01-18T02:23:33.368Z,42.74
2023-01-18T02:24:46.826Z,42.79
2023-01-18T02:25:54.460Z,42.24
2023-01-18T02:27:07.757Z,42.34
2023-01-18T02:28:09.940Z,42.30
2023-01-18T02:29:10.450Z,42.36
2023-01-18T02:30:11.335Z,42.38
2023-01-18T02:31:12.834Z,42.48
2023-01-18T02:32:15.597Z,42.33
2023-01-18T02:33:15.254Z,42.33
2023-01-18T02:34:13.707Z,42.74
2023-01-18T02:35:12.560Z,42.66
2023-01-18T02:36:06.451Z,42.38
2023-01-18T02:37:07.767Z,42.49
2023-01-18T02:38:05.599Z,42.21
2023-01-18T02:39:05.122Z,42.30
2023-01-18T02:40:09.410Z,42.28
2023-01-18T02:41:14.225Z,42.53
2023-01-18T02:42:27.399Z,42.32
2023-01-18T02:43:38.922Z,42.29
2023-01-18T02:44:50.487Z,42.54
2023-01-18T02:46:00.120Z,42.41
2023-01-18T02:46:55.410Z,42.30
2023-01-18T02:47:48.851Z,42.65
2023-01-18T02:48:45.606Z,42.42
2023-01-18T02:49:38.180Z,42.63
2023-01-18T02:50:33.699Z,42.46
2023-01-18T02:51:26.267Z,42.57
2023-01-18T02:52:43.294Z,42.24
2023-01-18T02:53:39.377Z,42.33
2023-01-18T02:54:36.449Z,42.33
2023-01-18T02:55:34.280Z,42.35
2023-01-18T02:56:33.707Z,42.55
2023-01-18T02:57:26.635Z,42.65
2023-01-18T02:58:28.692Z,42.71
2023-01-18T02:59:23.181Z,42.42
2023-01-18T03:00:20.779Z,42.29
2023-01-18T03:01:19.108Z,42.45
2023-01-18T03:02:16.784Z,42.18
2023-01-18T03:03:11.207Z,42.70
2023-01-18T03:04:08.748Z,42.45
2023-01-18T03:05:01.445Z,42.67
2023-01-18T03:06:00.793Z,42.48
2023-01-18T03:06:57.563Z,42.37
2023-01-18T03:07:57.334Z,42.43
2023-01-18T03:08:52.494Z,42.32
2023-01-18T03:09:47.889Z,42.37
2023-01-18T03:10:47.682Z,42.31
2023-01-18T03:11:46.328Z,42.64
2023-01-18T03:12:55.559Z,42.26
2023-01-18T03:14:15.076Z,42.28
2023-01-18T03:15:13.133Z,42.27
2023-01-18T03:16:11.901Z,42.43
2023-01-18T03:17:09.468Z,42.51
2023-01-18T03:18:09.224Z,42.41
2023-01-18T03:19:04.970Z,42.43
2023-01-18T03:20:07.727Z,42.39
2023-01-18T03:21:05.704Z,42.77
2023-01-18T03:21:59.452Z,42.41
2023-01-18T03:23:10.710Z,42.53
2023-01-18T03:24:08.843Z,42.33
2023-01-18T03:25:01.471Z,42.80
2023-01-18T03:25:56.363Z,42.53
2023-01-18T03:26:54.636Z,42.65
2023-01-18T03:28:03.736Z,42.53
2023-01-18T03:29:13.031Z,42.84
2023-01-18T03:30:25.271Z,42.67
2023-01-18T03:31:34.855Z,42.64
2023-01-18T03:32:42.446Z,42.55
2023-01-18T03:33:48.890Z,42.65
2023-01-18T03:34:47.821Z,42.38
2023-01-18T03:35:43.770Z,42.53
2023-01-18T03:36:39.189Z,42.59
2023-01-18T03:37:37.912Z,42.94
2023-01-18T03:38:31.256Z,42.63
2023-01-18T03:39:30.944Z,42.89
2023-01-18T03:40:25.179Z,42.55
2023-01-18T03:41:21.614Z,42.67
2023-01-18T03:42:16.447Z,42.75
2023-01-18T03:43:16.270Z,42.47
2023-01-18T03:44:13.667Z,42.41
2023-01-18T03:45:14.048Z,42.72
2023-01-18T03:46:08.224Z,42.41
2023-01-18T03:47:04.070Z,42.78
2023-01-18T03:47:56.632Z,42.84
2023-01-18T03:48:51.842Z,42.79
2023-01-18T03:49:44.424Z,42.74
2023-01-18T03:50:48.468Z,42.70
2023-01-18T03:51:54.150Z,42.48
2023-01-18T03:52:53.892Z,42.48
2023-01-18T03:53:53.048Z,42.65
2023-01-18T03:54:58.497Z,42.57
2023-01-18T03:55:54.111Z,42.71
2023-01-18T03:56:53.847Z,42.28
2023-01-18T03:57:50.284Z,42.45
2023-01-18T03:58:47.236Z,42.44
2023-01-18T03:59:40.193Z,42.67
2023-01-18T04:00:38.064Z,42.65
2023-01-18T04:01:31.064Z,42.79
2023-01-18T04:02:26.823Z,42.41
2023-01-18T04:03:19.395Z,42.42
2023-01-18T04:04:14.555Z,42.62
2023-01-18T04:05:08.003Z,42.41
2023-01-18T04:06:04.027Z,42.27
2023-01-18T04:06:58.065Z,42.46
2023-01-18T04:07:53.403Z,42.38
2023-01-18T04:08:45.960Z,42.66
2023-01-18T04:09:41.116Z,42.67
2023-01-18T04:10:33.653Z,42.47
2023-01-18T04:11:28.841Z,42.55
2023-01-18T04:12:21.404Z,42.78
2023-01-18T04:13:16.588Z,42.73
2023-01-18T04:14:09.138Z,42.58
2023-01-18T04:15:04.755Z,42.38
2023-01-18T04:16:00.032Z,42.46
2023-01-18T04:16:55.256Z,42.49
2023-01-18T04:17:49.838Z,42.55
2023-01-18T04:18:45.034Z,42.67
2023-01-18T04:19:37.578Z,42.47
2023-01-18T04:20:32.726Z,42.79
2023-01-18T04:21:25.313Z,42.50
2023-01-18T04:22:20.473Z,42.58
2023-01-18T04:23:13.027Z,42.65
2023-01-18T04:24:08.816Z,42.85
2023-01-18T04:25:01.378Z,42.48
2023-01-18T04:25:56.557Z,42.73
2023-01-18T04:26:49.166Z,42.86
2023-01-18T04:27:44.307Z,42.74
2023-01-18T04:28:36.915Z,42.60
2023-01-18T04:29:32.150Z,42.57
2023-01-18T04:30:24.718Z,42.43
2023-01-18T04:31:22.554Z,42.77
2023-01-18T04:32:15.166Z,42.93
2023-01-18T04:33:10.299Z,42.70
2023-01-18T04:34:02.870Z,42.72
2023-01-18T04:34:58.018Z,42.83
2023-01-18T04:35:51.175Z,42.75
2023-01-18T04:36:46.541Z,42.89
2023-01-18T04:37:39.152Z,42.42
2023-01-18T04:38:34.313Z,42.51
2023-01-18T04:39:26.905Z,42.53
2023-01-18T04:40:22.253Z,42.77
2023-01-18T04:41:14.813Z,42.60
2023-01-18T04:42:10.244Z,42.49
2023-01-18T04:43:02.848Z,42.55
2023-01-18T04:43:58.021Z,42.87
2023-01-18T04:44:50.685Z,42.93
2023-01-18T04:45:46.294Z,42.84
2023-01-18T04:46:41.516Z,42.84
2023-01-18T04:47:36.722Z,42.60
2023-01-18T04:48:29.375Z,42.82
2023-01-18T04:49:24.647Z,42.91
2023-01-18T04:50:17.572Z,42.42
2023-01-18T04:51:16.558Z,42.48
2023-01-18T04:52:09.750Z,42.48
2023-01-18T04:53:04.937Z,42.58
2023-01-18T04:53:58.647Z,42.60
2023-01-18T04:54:53.796Z,42.72
2023-01-18T04:55:46.558Z,42.77
2023-01-18T04:56:42.254Z,42.72
2023-01-18T04:57:35.150Z,42.46
2023-01-18T04:58:30.345Z,42.78
2023-01-18T04:59:22.914Z,42.88
2023-01-18T05:00:18.795Z,42.43
2023-01-18T05:01:13.982Z,42.66
2023-01-18T05:02:11.829Z,42.52
2023-01-18T05:03:04.578Z,42.81
2023-01-18T05:03:59.733Z,42.70
2023-01-18T05:04:52.329Z,42.38
2023-01-18T05:05:47.485Z,42.77
2023-01-18T05:06:40.073Z,42.89
2023-01-18T05:07:35.506Z,42.96
2023-01-18T05:08:28.157Z,42.97
2023-01-18T05:09:23.325Z,42.86
2023-01-18T05:10:16.328Z,42.65
2023-01-18T05:11:12.936Z,42.81
2023-01-18T05:12:05.722Z,42.82
2023-01-18T05:13:01.365Z,42.36
2023-01-18T05:13:54.248Z,42.46
2023-01-18T05:14:49.467Z,42.52
2023-01-18T05:15:42.022Z,42.50
2023-01-18T05:16:37.361Z,42.79
2023-01-18T05:17:34.882Z,42.42
2023-01-18T05:18:30.231Z,42.57
2023-01-18T05:19:22.794Z,42.72
2023-01-18T05:20:18.172Z,42.48
2023-01-18T05:21:10.771Z,42.38
2023-01-18T05:22:05.941Z,42.61
2023-01-18T05:22:58.806Z,42.70
2023-01-18T05:23:54.831Z,42.82
2023-01-18T05:24:47.446Z,42.60
2023-01-18T05:25:42.664Z,42.41
2023-01-18T05:26:35.273Z,42.72
2023-01-18T05:27:30.452Z,42.32
2023-01-18T05:28:23.859Z,42.36
2023-01-18T05:29:19.035Z,42.56
2023-01-18T05:30:12.497Z,42.82
2023-01-18T05:31:07.730Z,42.62
2023-01-18T05:32:00.317Z,42.75
2023-01-18T05:32:58.440Z,42.71
2023-01-18T05:33:51.103Z,42.41
2023-01-18T05:34:46.509Z,42.42
2023-01-18T05:35:39.059Z,42.55
2023-01-18T05:36:34.315Z,42.24
2023-01-18T05:37:27.090Z,42.41
2023-01-18T05:38:22.694Z,42.48
2023-01-18T05:39:15.311Z,42.03
2023-01-18T05:40:14.466Z,42.26
2023-01-18T05:41:07.077Z,42.00
2023-01-18T05:42:02.393Z,42.08
2023-01-18T05:42:54.975Z,42.31
2023-01-18T05:43:50.153Z,42.10
2023-01-18T05:44:42.701Z,41.97
2023-01-18T05:45:37.864Z,42.35
2023-01-18T05:46:30.467Z,42.31
2023-01-18T05:47:25.638Z,42.34
2023-01-18T05:48:21.330Z,41.92
2023-01-18T05:49:16.579Z,42.20
2023-01-18T05:50:10.701Z,41.75
2023-01-18T05:51:11.294Z,41.90
2023-01-18T05:52:04.368Z,42.27
2023-01-18T05:53:00.629Z,42.65
2023-01-18T05:53:53.561Z,42.42
2023-01-18T05:54:49.142Z,42.45
2023-01-18T05:55:41.947Z,42.23
2023-01-18T05:56:37.264Z,42.26
2023-01-18T05:57:29.995Z,42.36
2023-01-18T05:58:25.286Z,42.31
2023-01-18T05:59:17.920Z,42.31
2023-01-18T06:00:14.543Z,42.29
2023-01-18T06:01:07.790Z,42.23
2023-01-18T06:02:03.036Z,42.23
2023-01-18T06:02:55.664Z,42.62
2023-01-18T06:03:53.496Z,42.08
2023-01-18T06:04:47.721Z,42.14
2023-01-18T06:05:42.891Z,42.22
2023-01-18T06:06:35.485Z,42.15
2023-01-18T06:07:30.637Z,42.31
2023-01-18T06:08:23.194Z,42.40
2023-01-18T06:09:18.488Z,42.29
2023-01-18T06:10:11.743Z,42.09
2023-01-18T06:11:07.924Z,42.27
2023-01-18T06:12:00.475Z,42.24
2023-01-18T06:12:55.687Z,42.27
2023-01-18T06:13:48.333Z,42.33
2023-01-18T06:14:43.502Z,41.97
2023-01-18T06:15:36.758Z,42.12
2023-01-18T06:16:32.016Z,42.48
2023-01-18T06:17:24.745Z,42.14
2023-01-18T06:18:19.962Z,42.12
2023-01-18T06:19:15.186Z,42.16
2023-01-18T06:20:12.657Z,42.11
2023-01-18T06:21:05.708Z,42.31
2023-01-18T06:22:00.882Z,42.25
2023-01-18T06:22:53.453Z,41.90
2023-01-18T06:23:48.637Z,42.05
2023-01-18T06:24:41.221Z,41.75
2023-01-18T06:25:36.396Z,42.07
2023-01-18T06:26:31.319Z,42.00
2023-01-18T06:27:26.490Z,41.81
2023-01-18T06:28:19.737Z,42.05
2023-01-18T06:29:14.907Z,42.02
2023-01-18T06:30:11.108Z,41.89
2023-01-18T06:31:08.388Z,42.00
2023-01-18T06:32:01.040Z,41.94
2023-01-18T06:32:56.472Z,42.09
2023-01-18T06:33:49.365Z,42.14
2023-01-18T06:34:47.185Z,41.83
2023-01-18T06:35:40.015Z,41.64
2023-01-18T06:36:35.162Z,41.68
2023-01-18T06:37:27.732Z,41.61
2023-01-18T06:38:22.941Z,41.58
2023-01-18T06:39:15.603Z,41.82
2023-01-18T06:40:12.429Z,41.54
2023-01-18T06:41:05.271Z,41.77
2023-01-18T06:42:00.450Z,41.61
2023-01-18T06:42:53.052Z,41.67
2023-01-18T06:43:48.203Z,41.73
2023-01-18T06:44:41.165Z,41.51
2023-01-18T06:45:36.448Z,41.71
2023-01-18T06:46:29.143Z,41.56
2023-01-18T06:47:24.331Z,41.49
2023-01-18T06:48:16.886Z,41.82
2023-01-18T06:49:12.325Z,41.41
2023-01-18T06:50:09.020Z,41.80
2023-01-18T06:51:04.204Z,41.50
2023-01-18T06:51:56.782Z,41.68
2023-01-18T06:52:52.162Z,41.80
2023-01-18T06:53:44.737Z,41.75
2023-01-18T06:54:39.894Z,41.37
2023-01-18T06:55:32.483Z,41.63
2023-01-18T06:56:27.807Z,41.67
2023-01-18T06:57:20.376Z,41.80
2023-01-18T06:58:15.534Z,41.37
2023-01-18T06:59:08.664Z,41.37
2023-01-18T07:00:06.194Z,41.80
2023-01-18T07:00:59.888Z,41.37
2023-01-18T07:01:55.786Z,41.39
2023-01-18T07:02:48.518Z,41.52
2023-01-18T07:03:43.706Z,41.58
2023-01-18T07:04:42.777Z,41.81
2023-01-18T07:05:40.565Z,41.68
2023-01-18T07:06:33.181Z,41.42
2023-01-18T07:07:28.855Z,41.78
2023-01-18T07:08:22.020Z,41.58
2023-01-18T07:09:17.270Z,41.72
2023-01-18T07:10:11.030Z,41.48
2023-01-18T07:11:10.037Z,41.73
2023-01-18T07:12:02.654Z,41.70
2023-01-18T07:12:58.106Z,41.56
2023-01-18T07:13:53.981Z,41.55
2023-01-18T07:14:47.007Z,41.91
2023-01-18T07:15:42.307Z,41.75
2023-01-18T07:16:34.888Z,41.75
2023-01-18T07:17:30.072Z,41.94
2023-01-18T07:18:23.273Z,41.61
2023-01-18T07:19:19.164Z,41.55
2023-01-18T07:20:14.025Z,41.62
2023-01-18T07:21:15.133Z,41.61
2023-01-18T07:22:07.896Z,42.02
2023-01-18T07:23:04.496Z,41.70
2023-01-18T07:23:58.112Z,42.00
2023-01-18T07:24:53.294Z,41.97
2023-01-18T07:25:45.849Z,41.78
2023-01-18T07:26:41.167Z,41.77
2023-01-18T07:27:33.883Z,41.78
2023-01-18T07:28:29.219Z,41.70
2023-01-18T07:29:21.905Z,42.03
2023-01-18T07:30:18.042Z,41.97
2023-01-18T07:31:10.830Z,41.93
2023-01-18T07:32:06.298Z,41.61
2023-01-18T07:32:59.359Z,41.88
2023-01-18T07:33:55.135Z,41.65
2023-01-18T07:34:47.710Z,41.93
2023-01-18T07:35:42.866Z,41.93
2023-01-18T07:36:39.351Z,42.07
2023-01-18T07:37:34.538Z,41.90
2023-01-18T07:38:27.550Z,41.78
2023-01-18T07:39:23.085Z,42.12
2023-01-18T07:40:15.984Z,41.88
2023-01-18T07:41:14.372Z,41.85
2023-01-18T07:42:07.394Z,42.12
2023-01-18T07:43:02.911Z,41.79
2023-01-18T07:43:58.393Z,42.09
2023-01-18T07:44:50.963Z,42.12
2023-01-18T07:45:46.872Z,42.07
2023-01-18T07:46:39.584Z,42.07
2023-01-18T07:47:34.717Z,41.80
2023-01-18T07:48:27.902Z,42.18
2023-01-18T07:49:23.046Z,42.02
2023-01-18T07:50:16.135Z,42.20
2023-01-18T07:51:13.197Z,41.84
2023-01-18T07:52:11.232Z,42.24
2023-01-18T07:53:04.812Z,41.83
2023-01-18T07:53:59.997Z,42.36
2023-01-18T07:54:52.720Z,42.30
2023-01-18T07:55:47.893Z,42.36
2023-01-18T07:56:43.055Z,42.43
2023-01-18T07:57:35.638Z,42.01
2023-01-18T07:58:31.241Z,42.12
2023-01-18T07:59:27.924Z,42.28
2023-01-18T08:00:21.862Z,42.09
2023-01-18T08:01:18.364Z,42.16
2023-01-18T08:02:13.455Z,42.33
2023-01-18T08:03:10.107Z,41.88
2023-01-18T08:04:06.129Z,41.95
2023-01-18T08:04:58.696Z,42.45
2023-01-18T08:05:53.852Z,42.07
2023-01-18T08:06:49.382Z,42.37
2023-01-18T08:07:44.613Z,42.26
2023-01-18T08:08:39.959Z,42.24
2023-01-18T08:09:36.673Z,42.06
2023-01-18T08:10:29.888Z,42.39
2023-01-18T08:11:25.287Z,41.90
2023-01-18T08:12:18.806Z,42.29
2023-01-18T08:13:14.109Z,42.19
2023-01-18T08:14:06.662Z,42.29
2023-01-18T08:15:01.853Z,41.76
2023-01-18T08:15:55.587Z,42.17
2023-01-18T08:16:50.900Z,42.02
2023-01-18T08:17:43.543Z,42.26
2023-01-18T08:18:38.791Z,42.09
2023-01-18T08:19:31.404Z,42.25
2023-01-18T08:20:26.550Z,41.95
2023-01-18T08:21:21.908Z,42.12
2023-01-18T08:22:14.510Z,42.19
2023-01-18T08:23:12.269Z,42.22
2023-01-18T08:24:07.744Z,41.88
2023-01-18T08:25:00.399Z,42.14
2023-01-18T08:25:55.614Z,42.00
2023-01-18T08:26:50.941Z,42.27
2023-01-18T08:27:43.551Z,42.29
2023-01-18T08:28:38.794Z,41.88
2023-01-18T08:29:31.364Z,42.21
2023-01-18T08:30:28.297Z,42.26
2023-01-18T08:31:24.653Z,41.97
2023-01-18T08:32:17.260Z,42.14
2023-01-18T08:33:13.329Z,42.17
2023-01-18T08:34:08.572Z,42.12
2023-01-18T08:35:01.133Z,42.07
2023-01-18T08:35:56.342Z,42.10
2023-01-18T08:36:51.071Z,42.06
2023-01-18T08:37:46.231Z,42.40
2023-01-18T08:38:41.497Z,42.24
2023-01-18T08:39:36.726Z,42.20
2023-01-18T08:40:33.477Z,42.43
2023-01-18T08:41:31.007Z,42.14
2023-01-18T08:42:23.635Z,42.26
2023-01-18T08:43:18.817Z,42.27
2023-01-18T08:44:14.044Z,41.98
2023-01-18T08:45:08.356Z,42.11
2023-01-18T08:46:03.638Z,42.29
2023-01-18T08:46:56.264Z,42.38
2023-01-18T08:47:51.426Z,42.41
2023-01-18T08:48:46.639Z,42.03
2023-01-18T08:49:39.706Z,42.38
2023-01-18T08:50:35.757Z,42.05
2023-01-18T08:51:31.003Z,42.27
2023-01-18T08:52:23.670Z,42.07
2023-01-18T08:53:18.831Z,42.46
2023-01-18T08:54:16.603Z,42.37
2023-01-18T08:55:10.206Z,41.93
2023-01-18T08:56:08.451Z,42.04
2023-01-18T08:57:02.301Z,42.08
2023-01-18T08:57:57.865Z,42.27
2023-01-18T08:58:52.241Z,42.12
2023-01-18T08:59:47.495Z,42.38
2023-01-18T09:00:40.127Z,42.24
2023-01-18T09:01:35.379Z,42.25
2023-01-18T09:02:28.034Z,42.28
2023-01-18T09:03:25.269Z,42.09
2023-01-18T09:04:17.874Z,43.16
2023-01-18T09:05:13.222Z,43.35
2023-01-18T09:06:12.855Z,42.72
2023-01-18T09:07:05.681Z,42.33
2023-01-18T09:08:01.868Z,42.25
2023-01-18T09:08:54.449Z,41.64
2023-01-18T09:09:52.221Z,41.35
2023-01-18T09:10:44.958Z,41.11
2023-01-18T09:11:40.365Z,41.04
2023-01-18T09:12:34.859Z,40.74
2023-01-18T09:13:30.017Z,40.61
2023-01-18T09:14:22.580Z,40.58
2023-01-18T09:15:18.506Z,40.21
2023-01-18T09:16:14.406Z,40.34
2023-01-18T09:17:07.092Z,39.98
2023-01-18T09:18:06.197Z,40.20
2023-01-18T09:18:59.071Z,39.92
2023-01-18T09:19:54.875Z,39.82
2023-01-18T09:20:47.502Z,39.76
2023-01-18T09:21:42.749Z,39.72
2023-01-18T09:22:35.459Z,39.72
2023-01-18T09:23:30.679Z,39.29
2023-01-18T09:24:25.870Z,39.55
2023-01-18T09:25:21.038Z,39.18
2023-01-18T09:26:20.677Z,39.31
2023-01-18T09:27:16.691Z,39.05
2023-01-18T09:28:09.243Z,38.90
2023-01-18T09:29:04.421Z,38.99
2023-01-18T09:29:57.004Z,39.09
2023-01-18T09:30:52.162Z,38.99
2023-01-18T09:31:44.828Z,39.14
2023-01-18T09:32:42.301Z,38.99
2023-01-18T09:33:37.847Z,38.97
2023-01-18T09:34:33.202Z,39.00
2023-01-18T09:35:25.793Z,38.86
2023-01-18T09:36:24.001Z,38.92
2023-01-18T09:37:16.763Z,38.69
2023-01-18T09:38:12.538Z,38.95
2023-01-18T09:39:05.618Z,38.81
2023-01-18T09:40:00.770Z,38.40
2023-01-18T09:40:55.985Z,38.83
2023-01-18T09:41:55.031Z,38.37
2023-01-18T09:42:49.084Z,38.73
2023-01-18T09:43:46.943Z,38.39
2023-01-18T09:44:41.425Z,38.37
2023-01-18T09:45:39.762Z,38.33
2023-01-18T09:46:35.997Z,38.36
2023-01-18T09:47:34.359Z,38.14
2023-01-18T09:48:30.188Z,38.19
2023-01-18T09:49:30.195Z,38.46
2023-01-18T09:50:23.848Z,38.50
2023-01-18T09:51:22.918Z,38.36
2023-01-18T09:52:25.376Z,37.99
2023-01-18T09:53:27.075Z,38.19
2023-01-18T09:54:29.430Z,38.10
2023-01-18T09:55:33.326Z,38.04
2023-01-18T09:56:35.351Z,38.09
2023-01-18T09:57:39.599Z,38.41
2023-01-18T09:58:43.567Z,38.41
2023-01-18T09:59:41.648Z,38.45
2023-01-18T10:00:39.095Z,38.31
2023-01-18T10:01:33.775Z,38.22
2023-01-18T10:02:38.371Z,38.34
2023-01-18T10:03:35.001Z,38.34
2023-01-18T10:04:36.385Z,37.88
2023-01-18T10:05:32.033Z,37.90
2023-01-18T10:06:30.336Z,38.14
2023-01-18T10:07:24.951Z,37.93
2023-01-18T10:08:24.523Z,37.96
2023-01-18T10:09:22.441Z,37.88
2023-01-18T10:10:19.251Z,37.86
2023-01-18T10:11:18.977Z,37.96
2023-01-18T10:12:23.765Z,37.83
2023-01-18T10:13:33.429Z,37.98
2023-01-18T10:14:47.379Z,37.58
2023-01-18T10:15:40.837Z,37.70
2023-01-18T10:16:37.866Z,37.80
2023-01-18T10:17:35.620Z,37.83
2023-01-18T10:18:30.858Z,37.96
2023-01-18T10:19:26.413Z,37.58
2023-01-18T10:20:27.197Z,38.00
2023-01-18T10:21:25.171Z,37.68
2023-01-18T10:22:25.032Z,37.84
2023-01-18T10:23:25.955Z,37.54
2023-01-18T10:24:30.746Z,37.88
2023-01-18T10:25:30.541Z,37.94
2023-01-18T10:26:29.494Z,37.54
2023-01-18T10:27:36.783Z,37.44
2023-01-18T10:28:39.730Z,37.34
2023-01-18T10:29:46.398Z,37.68
2023-01-18T10:30:55.913Z,37.78
2023-01-18T10:31:59.679Z,37.52
2023-01-18T10:32:54.469Z,37.54
2023-01-18T10:33:49.766Z,37.31
2023-01-18T10:34:44.343Z,37.56
2023-01-18T10:35:45.355Z,37.48
2023-01-18T10:36:39.454Z,37.83
2023-01-18T10:37:40.390Z,37.61
2023-01-18T10:38:33.089Z,37.53
2023-01-18T10:39:32.659Z,37.25
2023-01-18T10:40:25.310Z,37.51
2023-01-18T10:41:23.458Z,37.34
2023-01-18T10:42:20.115Z,37.60
2023-01-18T10:43:20.683Z,37.54
2023-01-18T10:44:13.249Z,37.09
2023-01-18T10:45:20.345Z,37.08
2023-01-18T10:46:19.964Z,37.28
2023-01-18T10:47:17.830Z,37.39
2023-01-18T10:48:28.249Z,37.51
2023-01-18T10:49:39.384Z,37.52
2023-01-18T10:50:37.364Z,37.38
2023-01-18T10:51:35.360Z,37.52
2023-01-18T10:52:29.243Z,37.28
2023-01-18T10:53:29.543Z,37.29
2023-01-18T10:54:24.277Z,37.31
2023-01-18T10:55:21.655Z,37.33
2023-01-18T10:56:17.726Z,37.37
2023-01-18T10:57:23.507Z,36.51
2023-01-18T10:58:27.307Z,37.55
2023-01-18T10:59:25.267Z,38.98
2023-01-18T11:00:24.068Z,37.76
2023-01-18T11:01:19.931Z,37.44
2023-01-18T11:02:23.682Z,37.05
2023-01-18T11:03:19.148Z,36.90
2023-01-18T11:04:23.217Z,36.79
2023-01-18T11:05:25.652Z,36.85
2023-01-18T11:06:21.304Z,36.93
2023-01-18T11:07:13.903Z,36.73
2023-01-18T11:08:25.340Z,37.09
2023-01-18T11:09:44.686Z,36.68
2023-01-18T11:10:38.098Z,36.96
2023-01-18T11:11:47.435Z,36.69
2023-01-18T11:12:48.629Z,36.93
2023-01-18T11:13:45.896Z,36.63
2023-01-18T11:14:41.105Z,37.05
2023-01-18T11:15:33.752Z,36.73
2023-01-18T11:16:29.522Z,37.17
2023-01-18T11:17:22.648Z,37.15
2023-01-18T11:18:18.007Z,36.92
2023-01-18T11:19:20.460Z,37.03
2023-01-18T11:20:18.099Z,37.00
2023-01-18T11:21:14.113Z,36.93
2023-01-18T11:22:14.674Z,36.99
2023-01-18T11:23:16.473Z,37.13
2023-01-18T11:24:16.491Z,36.86
2023-01-18T11:25:17.391Z,37.08
2023-01-18T11:26:19.197Z,36.64
2023-01-18T11:27:15.370Z,36.63
2023-01-18T11:28:20.097Z,37.13
2023-01-18T11:29:15.573Z,36.67
2023-01-18T11:30:22.483Z,37.03
2023-01-18T11:31:17.636Z,36.68
2023-01-18T11:32:20.904Z,37.09
2023-01-18T11:33:17.263Z,36.62
2023-01-18T11:34:25.708Z,37.03
2023-01-18T11:35:22.442Z,37.12
2023-01-18T11:36:19.295Z,36.81
2023-01-18T11:37:32.177Z,36.89
2023-01-18T11:38:29.612Z,37.14
2023-01-18T11:39:33.346Z,37.15
2023-01-18T11:40:28.136Z,36.68
2023-01-18T11:41:25.032Z,37.01
2023-01-18T11:42:31.624Z,36.76
2023-01-18T11:43:26.037Z,36.73
2023-01-18T11:44:26.772Z,37.13
2023-01-18T11:45:22.923Z,36.76
2023-01-18T11:46:34.974Z,36.82
2023-01-18T11:47:31.551Z,36.83
2023-01-18T11:48:30.744Z,37.05
2023-01-18T11:49:29.834Z,36.97
2023-01-18T11:50:32.621Z,36.88
2023-01-18T11:51:31.798Z,37.01
2023-01-18T11:52:36.506Z,36.97
2023-01-18T11:53:44.100Z,37.16
2023-01-18T11:54:40.959Z,36.96
2023-01-18T11:55:39.563Z,37.19
2023-01-18T11:56:35.863Z,37.22
2023-01-18T11:57:31.162Z,37.37
2023-01-18T11:58:26.707Z,36.90
2023-01-18T11:59:29.630Z,37.15
2023-01-18T12:00:28.232Z,37.16
2023-01-18T12:01:36.423Z,37.25
2023-01-18T12:02:45.747Z,37.07
2023-01-18T12:03:52.424Z,36.90
2023-01-18T12:04:59.338Z,37.28
2023-01-18T12:05:57.791Z,37.17
2023-01-18T12:06:58.025Z,37.21
2023-01-18T12:08:00.585Z,37.34
2023-01-18T12:09:01.882Z,36.89
2023-01-18T12:09:56.043Z,36.90
2023-01-18T12:11:01.845Z,36.96
2023-01-18T12:12:18.089Z,36.61